sensor_id;sensor_type;location;lat;lon;timestamp;P1;durP1;ratioP1;P2;durP2;ratioP2
5195;SDS011;2617;51.006;12.436;2023-06-10T00:03:35;9.10;;;7.90;;
5195;SDS011;2617;51.006;12.436;2023-06-10T00:08:38;10.07;;;7.83;;
5195;SDS011;2617;51.006;12.436;2023-06-10T00:13:40;9.53;;;8.20;;
5195;SDS011;2617;51.006;12.436;2023-06-10T00:18:42;12.43;;;8.18;;
5195;SDS011;2617;51.006;12.436;2023-06-10T00:23:45;9.10;;;7.93;;
5195;SDS011;2617;51.006;12.436;2023-06-10T00:28:47;17.37;;;7.80;;
5195;SDS011;2617;51.006;12.436;2023-06-10T00:33:51;10.20;;;8.73;;
5195;SDS011;2617;51.006;12.436;2023-06-10T00:38:53;9.20;;;8.13;;
5195;SDS011;2617;51.006;12.436;2023-06-10T00:43:55;9.23;;;8.23;;
5195;SDS011;2617;51.006;12.436;2023-06-10T00:48:58;11.13;;;8.33;;
5195;SDS011;2617;51.006;12.436;2023-06-10T00:54:00;9.50;;;7.90;;
5195;SDS011;2617;51.006;12.436;2023-06-10T00:59:03;11.27;;;9.10;;
5195;SDS011;2617;51.006;12.436;2023-06-10T01:04:06;11.53;;;8.20;;
5195;SDS011;2617;51.006;12.436;2023-06-10T01:09:13;11.00;;;8.33;;
5195;SDS011;2617;51.006;12.436;2023-06-10T01:14:18;9.57;;;8.67;;
5195;SDS011;2617;51.006;12.436;2023-06-10T01:19:21;10.53;;;8.77;;
5195;SDS011;2617;51.006;12.436;2023-06-10T01:24:23;12.70;;;8.80;;
5195;SDS011;2617;51.006;12.436;2023-06-10T01:29:32;9.77;;;8.20;;
5195;SDS011;2617;51.006;12.436;2023-06-10T01:34:44;11.57;;;8.30;;
5195;SDS011;2617;51.006;12.436;2023-06-10T01:39:46;12.60;;;8.93;;
5195;SDS011;2617;51.006;12.436;2023-06-10T01:44:49;9.67;;;7.83;;
5195;SDS011;2617;51.006;12.436;2023-06-10T01:49:52;12.73;;;8.00;;
5195;SDS011;2617;51.006;12.436;2023-06-10T01:54:54;12.90;;;8.83;;
5195;SDS011;2617;51.006;12.436;2023-06-10T01:59:57;9.20;;;7.00;;
5195;SDS011;2617;51.006;12.436;2023-06-10T02:04:59;7.90;;;6.63;;
5195;SDS011;2617;51.006;12.436;2023-06-10T02:10:01;7.50;;;6.60;;
5195;SDS011;2617;51.006;12.436;2023-06-10T02:15:05;9.83;;;6.50;;
5195;SDS011;2617;51.006;12.436;2023-06-10T02:20:07;15.07;;;6.13;;
5195;SDS011;2617;51.006;12.436;2023-06-10T02:25:10;8.00;;;6.10;;
5195;SDS011;2617;51.006;12.436;2023-06-10T02:30:12;6.60;;;5.63;;
5195;SDS011;2617;51.006;12.436;2023-06-10T02:35:15;10.73;;;6.23;;
5195;SDS011;2617;51.006;12.436;2023-06-10T02:40:17;8.33;;;5.97;;
5195;SDS011;2617;51.006;12.436;2023-06-10T02:45:20;6.57;;;5.97;;
5195;SDS011;2617;51.006;12.436;2023-06-10T02:50:23;9.70;;;5.10;;
5195;SDS011;2617;51.006;12.436;2023-06-10T02:55:26;9.30;;;4.82;;
5195;SDS011;2617;51.006;12.436;2023-06-10T03:00:28;9.00;;;5.03;;
5195;SDS011;2617;51.006;12.436;2023-06-10T03:05:31;8.37;;;5.50;;
5195;SDS011;2617;51.006;12.436;2023-06-10T03:10:34;7.93;;;5.00;;
5195;SDS011;2617;51.006;12.436;2023-06-10T03:15:36;7.77;;;5.60;;
5195;SDS011;2617;51.006;12.436;2023-06-10T03:20:39;9.40;;;5.50;;
5195;SDS011;2617;51.006;12.436;2023-06-10T03:25:41;8.77;;;5.03;;
5195;SDS011;2617;51.006;12.436;2023-06-10T03:30:43;7.60;;;5.57;;
5195;SDS011;2617;51.006;12.436;2023-06-10T03:35:46;6.00;;;5.03;;
5195;SDS011;2617;51.006;12.436;2023-06-10T03:40:48;5.90;;;4.23;;
5195;SDS011;2617;51.006;12.436;2023-06-10T03:45:51;7.80;;;4.87;;
5195;SDS011;2617;51.006;12.436;2023-06-10T03:50:53;6.47;;;5.10;;
5195;SDS011;2617;51.006;12.436;2023-06-10T03:55:55;8.10;;;5.00;;
5195;SDS011;2617;51.006;12.436;2023-06-10T04:00:58;9.33;;;4.77;;
5195;SDS011;2617;51.006;12.436;2023-06-10T04:06:00;8.53;;;4.63;;
5195;SDS011;2617;51.006;12.436;2023-06-10T04:11:03;7.10;;;4.40;;
5195;SDS011;2617;51.006;12.436;2023-06-10T04:16:06;9.35;;;4.18;;
5195;SDS011;2617;51.006;12.436;2023-06-10T04:21:08;7.93;;;4.55;;
5195;SDS011;2617;51.006;12.436;2023-06-10T04:26:11;5.93;;;4.47;;
5195;SDS011;2617;51.006;12.436;2023-06-10T04:31:14;6.13;;;4.13;;
5195;SDS011;2617;51.006;12.436;2023-06-10T04:36:16;5.73;;;4.50;;
5195;SDS011;2617;51.006;12.436;2023-06-10T04:41:19;12.83;;;4.60;;
5195;SDS011;2617;51.006;12.436;2023-06-10T04:46:22;6.40;;;4.30;;
5195;SDS011;2617;51.006;12.436;2023-06-10T04:51:25;7.97;;;5.27;;
5195;SDS011;2617;51.006;12.436;2023-06-10T04:56:27;6.67;;;4.60;;
5195;SDS011;2617;51.006;12.436;2023-06-10T05:01:30;7.87;;;5.80;;
5195;SDS011;2617;51.006;12.436;2023-06-10T05:06:33;9.90;;;5.28;;
5195;SDS011;2617;51.006;12.436;2023-06-10T05:11:35;11.40;;;5.60;;
5195;SDS011;2617;51.006;12.436;2023-06-10T05:16:38;13.20;;;6.30;;
5195;SDS011;2617;51.006;12.436;2023-06-10T05:21:41;9.77;;;5.40;;
5195;SDS011;2617;51.006;12.436;2023-06-10T05:26:43;7.73;;;5.70;;
5195;SDS011;2617;51.006;12.436;2023-06-10T05:31:46;8.00;;;5.63;;
5195;SDS011;2617;51.006;12.436;2023-06-10T05:36:48;9.50;;;5.50;;
5195;SDS011;2617;51.006;12.436;2023-06-10T05:41:51;10.02;;;6.57;;
5195;SDS011;2617;51.006;12.436;2023-06-10T05:46:54;13.73;;;6.93;;
5195;SDS011;2617;51.006;12.436;2023-06-10T05:51:57;11.30;;;8.00;;
5195;SDS011;2617;51.006;12.436;2023-06-10T05:57:00;8.23;;;7.43;;
5195;SDS011;2617;51.006;12.436;2023-06-10T06:02:02;10.63;;;8.50;;
5195;SDS011;2617;51.006;12.436;2023-06-10T06:07:06;9.07;;;7.93;;
5195;SDS011;2617;51.006;12.436;2023-06-10T06:12:08;11.03;;;8.63;;
5195;SDS011;2617;51.006;12.436;2023-06-10T06:17:11;11.80;;;7.47;;
5195;SDS011;2617;51.006;12.436;2023-06-10T06:22:13;15.13;;;8.93;;
5195;SDS011;2617;51.006;12.436;2023-06-10T06:27:16;13.93;;;8.30;;
5195;SDS011;2617;51.006;12.436;2023-06-10T06:32:19;13.80;;;8.50;;
5195;SDS011;2617;51.006;12.436;2023-06-10T06:37:22;10.25;;;9.13;;
5195;SDS011;2617;51.006;12.436;2023-06-10T06:42:26;10.35;;;8.77;;
5195;SDS011;2617;51.006;12.436;2023-06-10T06:47:28;11.70;;;8.20;;
5195;SDS011;2617;51.006;12.436;2023-06-10T06:52:31;11.56;;;8.50;;
5195;SDS011;2617;51.006;12.436;2023-06-10T06:57:33;13.70;;;9.13;;
5195;SDS011;2617;51.006;12.436;2023-06-10T07:02:35;9.53;;;8.50;;
5195;SDS011;2617;51.006;12.436;2023-06-10T07:07:38;10.17;;;8.63;;
5195;SDS011;2617;51.006;12.436;2023-06-10T07:12:40;14.50;;;9.70;;
5195;SDS011;2617;51.006;12.436;2023-06-10T07:17:43;12.90;;;9.33;;
5195;SDS011;2617;51.006;12.436;2023-06-10T07:22:45;9.97;;;8.97;;
5195;SDS011;2617;51.006;12.436;2023-06-10T07:27:48;15.53;;;9.93;;
5195;SDS011;2617;51.006;12.436;2023-06-10T07:32:51;9.30;;;8.37;;
5195;SDS011;2617;51.006;12.436;2023-06-10T07:37:53;9.40;;;8.50;;
5195;SDS011;2617;51.006;12.436;2023-06-10T07:42:56;10.73;;;8.65;;
5195;SDS011;2617;51.006;12.436;2023-06-10T07:47:58;10.77;;;8.97;;
5195;SDS011;2617;51.006;12.436;2023-06-10T07:53:02;11.65;;;8.60;;
5195;SDS011;2617;51.006;12.436;2023-06-10T07:58:04;13.83;;;8.83;;
5195;SDS011;2617;51.006;12.436;2023-06-10T08:03:07;12.40;;;9.07;;
5195;SDS011;2617;51.006;12.436;2023-06-10T08:08:10;12.47;;;9.03;;
5195;SDS011;2617;51.006;12.436;2023-06-10T08:13:13;13.00;;;8.90;;
5195;SDS011;2617;51.006;12.436;2023-06-10T08:18:15;11.97;;;9.10;;
5195;SDS011;2617;51.006;12.436;2023-06-10T08:23:18;10.63;;;8.83;;
5195;SDS011;2617;51.006;12.436;2023-06-10T08:28:20;13.20;;;9.37;;
5195;SDS011;2617;51.006;12.436;2023-06-10T08:33:22;14.23;;;9.87;;
5195;SDS011;2617;51.006;12.436;2023-06-10T08:38:25;14.50;;;8.97;;
5195;SDS011;2617;51.006;12.436;2023-06-10T08:48:46;13.27;;;8.87;;
5195;SDS011;2617;51.006;12.436;2023-06-10T08:53:50;13.40;;;9.17;;
5195;SDS011;2617;51.006;12.436;2023-06-10T08:58:53;11.27;;;9.23;;
5195;SDS011;2617;51.006;12.436;2023-06-10T09:03:57;13.73;;;9.32;;
5195;SDS011;2617;51.006;12.436;2023-06-10T09:08:59;13.23;;;10.00;;
5195;SDS011;2617;51.006;12.436;2023-06-10T09:14:02;13.45;;;9.25;;
5195;SDS011;2617;51.006;12.436;2023-06-10T09:19:04;10.40;;;8.70;;
5195;SDS011;2617;51.006;12.436;2023-06-10T09:24:07;12.43;;;9.07;;
5195;SDS011;2617;51.006;12.436;2023-06-10T09:29:09;13.30;;;9.23;;
5195;SDS011;2617;51.006;12.436;2023-06-10T09:34:12;10.63;;;9.50;;
5195;SDS011;2617;51.006;12.436;2023-06-10T09:39:15;15.43;;;9.77;;
5195;SDS011;2617;51.006;12.436;2023-06-10T09:44:19;12.90;;;10.10;;
5195;SDS011;2617;51.006;12.436;2023-06-10T09:49:21;12.57;;;10.03;;
5195;SDS011;2617;51.006;12.436;2023-06-10T09:54:23;11.67;;;9.17;;
5195;SDS011;2617;51.006;12.436;2023-06-10T09:59:29;12.13;;;9.13;;
5195;SDS011;2617;51.006;12.436;2023-06-10T10:04:34;9.57;;;8.57;;
5195;SDS011;2617;51.006;12.436;2023-06-10T10:09:36;8.87;;;7.87;;
5195;SDS011;2617;51.006;12.436;2023-06-10T10:14:39;8.83;;;7.93;;
5195;SDS011;2617;51.006;12.436;2023-06-10T10:19:46;8.77;;;7.40;;
5195;SDS011;2617;51.006;12.436;2023-06-10T10:24:50;8.23;;;7.43;;
5195;SDS011;2617;51.006;12.436;2023-06-10T10:29:52;7.57;;;6.80;;
5195;SDS011;2617;51.006;12.436;2023-06-10T10:35:03;8.47;;;7.27;;
5195;SDS011;2617;51.006;12.436;2023-06-10T10:40:02;6.95;;;6.30;;
5195;SDS011;2617;51.006;12.436;2023-06-10T10:45:06;10.33;;;6.80;;
5195;SDS011;2617;51.006;12.436;2023-06-10T10:50:15;7.00;;;6.30;;
5195;SDS011;2617;51.006;12.436;2023-06-10T10:55:17;6.70;;;6.00;;
5195;SDS011;2617;51.006;12.436;2023-06-10T11:00:28;6.00;;;5.47;;
5195;SDS011;2617;51.006;12.436;2023-06-10T11:05:35;6.70;;;4.60;;
5195;SDS011;2617;51.006;12.436;2023-06-10T11:10:34;7.50;;;4.87;;
5195;SDS011;2617;51.006;12.436;2023-06-10T11:15:40;5.37;;;4.87;;
5195;SDS011;2617;51.006;12.436;2023-06-10T11:20:53;6.90;;;5.00;;
5195;SDS011;2617;51.006;12.436;2023-06-10T11:31:19;5.53;;;5.03;;
5195;SDS011;2617;51.006;12.436;2023-06-10T11:36:23;3.93;;;3.63;;
5195;SDS011;2617;51.006;12.436;2023-06-10T11:41:25;6.00;;;4.10;;
5195;SDS011;2617;51.006;12.436;2023-06-10T11:46:28;3.60;;;3.30;;
5195;SDS011;2617;51.006;12.436;2023-06-10T11:51:35;4.23;;;3.93;;
5195;SDS011;2617;51.006;12.436;2023-06-10T11:56:36;4.20;;;3.80;;
5195;SDS011;2617;51.006;12.436;2023-06-10T12:01:42;5.43;;;4.00;;
5195;SDS011;2617;51.006;12.436;2023-06-10T12:06:45;4.57;;;4.00;;
5195;SDS011;2617;51.006;12.436;2023-06-10T12:11:50;5.20;;;3.90;;
5195;SDS011;2617;51.006;12.436;2023-06-10T12:16:59;4.40;;;4.00;;
5195;SDS011;2617;51.006;12.436;2023-06-10T12:22:01;6.43;;;4.23;;
5195;SDS011;2617;51.006;12.436;2023-06-10T12:27:05;4.25;;;3.92;;
5195;SDS011;2617;51.006;12.436;2023-06-10T12:32:08;4.57;;;4.12;;
5195;SDS011;2617;51.006;12.436;2023-06-10T12:37:11;4.30;;;4.00;;
5195;SDS011;2617;51.006;12.436;2023-06-10T12:42:15;5.53;;;4.22;;
5195;SDS011;2617;51.006;12.436;2023-06-10T12:47:17;4.90;;;4.40;;
5195;SDS011;2617;51.006;12.436;2023-06-10T12:52:19;4.87;;;4.47;;
5195;SDS011;2617;51.006;12.436;2023-06-10T12:57:22;4.83;;;4.30;;
5195;SDS011;2617;51.006;12.436;2023-06-10T13:02:24;4.03;;;3.73;;
5195;SDS011;2617;51.006;12.436;2023-06-10T13:07:27;5.63;;;4.60;;
5195;SDS011;2617;51.006;12.436;2023-06-10T13:12:30;6.50;;;4.60;;
5195;SDS011;2617;51.006;12.436;2023-06-10T13:17:34;5.00;;;4.30;;
5195;SDS011;2617;51.006;12.436;2023-06-10T13:22:36;5.90;;;4.40;;
5195;SDS011;2617;51.006;12.436;2023-06-10T13:27:39;10.32;;;4.62;;
5195;SDS011;2617;51.006;12.436;2023-06-10T13:32:42;5.15;;;4.70;;
5195;SDS011;2617;51.006;12.436;2023-06-10T13:37:44;4.27;;;3.87;;
5195;SDS011;2617;51.006;12.436;2023-06-10T13:42:47;4.93;;;3.70;;
5195;SDS011;2617;51.006;12.436;2023-06-10T13:47:49;4.80;;;4.40;;
5195;SDS011;2617;51.006;12.436;2023-06-10T13:52:52;4.53;;;3.83;;
5195;SDS011;2617;51.006;12.436;2023-06-10T13:57:55;4.27;;;3.97;;
5195;SDS011;2617;51.006;12.436;2023-06-10T14:02:57;3.77;;;3.47;;
5195;SDS011;2617;51.006;12.436;2023-06-10T14:08:00;4.30;;;3.90;;
5195;SDS011;2617;51.006;12.436;2023-06-10T14:13:03;4.67;;;4.20;;
5195;SDS011;2617;51.006;12.436;2023-06-10T14:18:05;4.15;;;3.80;;
5195;SDS011;2617;51.006;12.436;2023-06-10T14:23:08;6.75;;;3.87;;
5195;SDS011;2617;51.006;12.436;2023-06-10T14:28:11;6.33;;;4.60;;
5195;SDS011;2617;51.006;12.436;2023-06-10T14:33:13;4.40;;;3.80;;
5195;SDS011;2617;51.006;12.436;2023-06-10T14:38:16;4.12;;;3.72;;
5195;SDS011;2617;51.006;12.436;2023-06-10T14:43:18;5.80;;;4.40;;
5195;SDS011;2617;51.006;12.436;2023-06-10T14:48:20;5.37;;;3.93;;
5195;SDS011;2617;51.006;12.436;2023-06-10T14:53:23;5.57;;;4.70;;
5195;SDS011;2617;51.006;12.436;2023-06-10T14:58:25;10.43;;;4.33;;
5195;SDS011;2617;51.006;12.436;2023-06-10T15:03:28;8.38;;;6.53;;
5195;SDS011;2617;51.006;12.436;2023-06-10T15:08:31;6.30;;;5.70;;
5195;SDS011;2617;51.006;12.436;2023-06-10T15:13:33;8.03;;;4.70;;
5195;SDS011;2617;51.006;12.436;2023-06-10T15:18:36;5.50;;;5.00;;
5195;SDS011;2617;51.006;12.436;2023-06-10T15:23:39;6.15;;;5.12;;
5195;SDS011;2617;51.006;12.436;2023-06-10T15:28:42;13.07;;;7.65;;
5195;SDS011;2617;51.006;12.436;2023-06-10T15:33:44;4.77;;;4.37;;
5195;SDS011;2617;51.006;12.436;2023-06-10T15:38:47;6.32;;;4.40;;
5195;SDS011;2617;51.006;12.436;2023-06-10T15:43:50;6.23;;;5.13;;
5195;SDS011;2617;51.006;12.436;2023-06-10T15:48:53;8.27;;;4.70;;
5195;SDS011;2617;51.006;12.436;2023-06-10T15:53:55;9.03;;;5.00;;
5195;SDS011;2617;51.006;12.436;2023-06-10T15:58:58;6.20;;;4.50;;
5195;SDS011;2617;51.006;12.436;2023-06-10T16:04:02;15.32;;;6.10;;
5195;SDS011;2617;51.006;12.436;2023-06-10T16:09:04;6.67;;;5.97;;
5195;SDS011;2617;51.006;12.436;2023-06-10T16:14:07;5.50;;;5.00;;
5195;SDS011;2617;51.006;12.436;2023-06-10T16:19:09;6.27;;;5.10;;
5195;SDS011;2617;51.006;12.436;2023-06-10T16:24:12;5.90;;;4.07;;
5195;SDS011;2617;51.006;12.436;2023-06-10T16:29:16;7.00;;;4.70;;
5195;SDS011;2617;51.006;12.436;2023-06-10T16:34:19;6.50;;;4.33;;
5195;SDS011;2617;51.006;12.436;2023-06-10T16:39:21;9.77;;;4.00;;
5195;SDS011;2617;51.006;12.436;2023-06-10T16:44:24;5.50;;;4.10;;
5195;SDS011;2617;51.006;12.436;2023-06-10T16:49:26;5.03;;;4.50;;
5195;SDS011;2617;51.006;12.436;2023-06-10T16:54:29;5.30;;;4.60;;
5195;SDS011;2617;51.006;12.436;2023-06-10T16:59:32;4.80;;;4.40;;
5195;SDS011;2617;51.006;12.436;2023-06-10T17:04:34;5.10;;;4.70;;
5195;SDS011;2617;51.006;12.436;2023-06-10T17:09:37;6.10;;;5.00;;
5195;SDS011;2617;51.006;12.436;2023-06-10T17:14:40;6.65;;;5.93;;
5195;SDS011;2617;51.006;12.436;2023-06-10T17:19:42;5.67;;;5.07;;
5195;SDS011;2617;51.006;12.436;2023-06-10T17:24:45;6.70;;;4.00;;
5195;SDS011;2617;51.006;12.436;2023-06-10T17:29:47;4.10;;;3.70;;
5195;SDS011;2617;51.006;12.436;2023-06-10T17:34:50;6.17;;;5.03;;
5195;SDS011;2617;51.006;12.436;2023-06-10T17:39:53;4.77;;;4.37;;
5195;SDS011;2617;51.006;12.436;2023-06-10T17:44:55;7.63;;;5.07;;
5195;SDS011;2617;51.006;12.436;2023-06-10T17:49:58;10.20;;;5.67;;
5195;SDS011;2617;51.006;12.436;2023-06-10T17:55:01;7.17;;;5.50;;
5195;SDS011;2617;51.006;12.436;2023-06-10T18:00:04;11.37;;;6.20;;
5195;SDS011;2617;51.006;12.436;2023-06-10T18:05:07;7.68;;;5.05;;
5195;SDS011;2617;51.006;12.436;2023-06-10T18:10:10;6.30;;;5.45;;
5195;SDS011;2617;51.006;12.436;2023-06-10T18:15:12;8.57;;;6.43;;
5195;SDS011;2617;51.006;12.436;2023-06-10T18:20:15;12.00;;;9.00;;
5195;SDS011;2617;51.006;12.436;2023-06-10T18:25:17;6.47;;;5.72;;
5195;SDS011;2617;51.006;12.436;2023-06-10T18:30:20;6.80;;;5.27;;
5195;SDS011;2617;51.006;12.436;2023-06-10T18:35:24;8.37;;;5.67;;
5195;SDS011;2617;51.006;12.436;2023-06-10T18:40:26;5.43;;;4.70;;
5195;SDS011;2617;51.006;12.436;2023-06-10T18:45:29;9.00;;;5.50;;
5195;SDS011;2617;51.006;12.436;2023-06-10T18:50:32;7.37;;;5.70;;
5195;SDS011;2617;51.006;12.436;2023-06-10T18:55:34;9.00;;;5.40;;
5195;SDS011;2617;51.006;12.436;2023-06-10T19:00:37;8.37;;;6.17;;
5195;SDS011;2617;51.006;12.436;2023-06-10T19:05:39;9.50;;;7.33;;
5195;SDS011;2617;51.006;12.436;2023-06-10T19:10:41;9.18;;;7.20;;
5195;SDS011;2617;51.006;12.436;2023-06-10T19:15:44;8.02;;;5.90;;
5195;SDS011;2617;51.006;12.436;2023-06-10T19:20:46;13.40;;;9.07;;
5195;SDS011;2617;51.006;12.436;2023-06-10T19:25:49;11.73;;;7.72;;
5195;SDS011;2617;51.006;12.436;2023-06-10T19:30:51;6.05;;;5.43;;
5195;SDS011;2617;51.006;12.436;2023-06-10T19:35:54;6.13;;;5.27;;
5195;SDS011;2617;51.006;12.436;2023-06-10T19:40:56;5.43;;;4.73;;
5195;SDS011;2617;51.006;12.436;2023-06-10T19:45:58;6.77;;;5.50;;
5195;SDS011;2617;51.006;12.436;2023-06-10T19:51:01;5.83;;;5.20;;
5195;SDS011;2617;51.006;12.436;2023-06-10T19:56:05;6.00;;;5.40;;
5195;SDS011;2617;51.006;12.436;2023-06-10T20:01:08;9.50;;;7.13;;
5195;SDS011;2617;51.006;12.436;2023-06-10T20:06:10;7.33;;;5.90;;
5195;SDS011;2617;51.006;12.436;2023-06-10T20:11:13;14.30;;;9.00;;
5195;SDS011;2617;51.006;12.436;2023-06-10T20:16:15;8.85;;;6.37;;
5195;SDS011;2617;51.006;12.436;2023-06-10T20:21:18;8.88;;;5.97;;
5195;SDS011;2617;51.006;12.436;2023-06-10T20:26:20;12.20;;;7.10;;
5195;SDS011;2617;51.006;12.436;2023-06-10T20:31:22;7.10;;;6.40;;
5195;SDS011;2617;51.006;12.436;2023-06-10T20:36:25;11.83;;;6.57;;
5195;SDS011;2617;51.006;12.436;2023-06-10T20:41:27;9.67;;;8.73;;
5195;SDS011;2617;51.006;12.436;2023-06-10T20:46:30;7.97;;;7.13;;
5195;SDS011;2617;51.006;12.436;2023-06-10T20:51:32;11.13;;;7.70;;
5195;SDS011;2617;51.006;12.436;2023-06-10T20:56:35;10.50;;;7.50;;
5195;SDS011;2617;51.006;12.436;2023-06-10T21:01:39;10.23;;;7.77;;
5195;SDS011;2617;51.006;12.436;2023-06-10T21:06:41;8.37;;;7.57;;
5195;SDS011;2617;51.006;12.436;2023-06-10T21:11:44;8.23;;;7.30;;
5195;SDS011;2617;51.006;12.436;2023-06-10T21:16:47;8.40;;;7.50;;
5195;SDS011;2617;51.006;12.436;2023-06-10T21:21:49;11.70;;;7.60;;
5195;SDS011;2617;51.006;12.436;2023-06-10T21:26:51;11.80;;;7.63;;
5195;SDS011;2617;51.006;12.436;2023-06-10T21:31:54;13.10;;;8.80;;
5195;SDS011;2617;51.006;12.436;2023-06-10T21:36:56;14.77;;;7.83;;
5195;SDS011;2617;51.006;12.436;2023-06-10T21:41:59;10.43;;;8.20;;
5195;SDS011;2617;51.006;12.436;2023-06-10T21:47:03;9.83;;;8.47;;
5195;SDS011;2617;51.006;12.436;2023-06-10T21:52:06;8.30;;;7.47;;
5195;SDS011;2617;51.006;12.436;2023-06-10T21:57:10;9.73;;;8.30;;
5195;SDS011;2617;51.006;12.436;2023-06-10T22:02:12;14.17;;;9.43;;
5195;SDS011;2617;51.006;12.436;2023-06-10T22:07:14;11.60;;;9.33;;
5195;SDS011;2617;51.006;12.436;2023-06-10T22:12:17;13.63;;;9.37;;
5195;SDS011;2617;51.006;12.436;2023-06-10T22:17:20;11.70;;;9.20;;
5195;SDS011;2617;51.006;12.436;2023-06-10T22:22:22;10.07;;;9.17;;
5195;SDS011;2617;51.006;12.436;2023-06-10T22:27:25;10.40;;;9.33;;
5195;SDS011;2617;51.006;12.436;2023-06-10T22:32:27;15.77;;;11.73;;
5195;SDS011;2617;51.006;12.436;2023-06-10T22:37:30;15.13;;;10.90;;
5195;SDS011;2617;51.006;12.436;2023-06-10T22:42:33;10.67;;;9.17;;
5195;SDS011;2617;51.006;12.436;2023-06-10T22:47:35;11.43;;;9.33;;
5195;SDS011;2617;51.006;12.436;2023-06-10T22:52:38;13.07;;;11.30;;
5195;SDS011;2617;51.006;12.436;2023-06-10T22:57:41;14.00;;;11.43;;
5195;SDS011;2617;51.006;12.436;2023-06-10T23:02:44;13.20;;;10.90;;
5195;SDS011;2617;51.006;12.436;2023-06-10T23:07:47;13.27;;;11.37;;
5195;SDS011;2617;51.006;12.436;2023-06-10T23:12:49;15.67;;;12.07;;
5195;SDS011;2617;51.006;12.436;2023-06-10T23:17:52;54.07;;;34.40;;
5195;SDS011;2617;51.006;12.436;2023-06-10T23:22:55;33.47;;;22.80;;
5195;SDS011;2617;51.006;12.436;2023-06-10T23:27:58;19.23;;;13.40;;
5195;SDS011;2617;51.006;12.436;2023-06-10T23:33:00;17.07;;;11.50;;
5195;SDS011;2617;51.006;12.436;2023-06-10T23:38:03;12.30;;;10.23;;
5195;SDS011;2617;51.006;12.436;2023-06-10T23:43:05;12.00;;;10.37;;
5195;SDS011;2617;51.006;12.436;2023-06-10T23:48:09;13.13;;;9.23;;
5195;SDS011;2617;51.006;12.436;2023-06-10T23:53:11;11.77;;;9.83;;
5195;SDS011;2617;51.006;12.436;2023-06-10T23:58:14;11.10;;;8.76;;
